sensor_id;sensor_type;location;lat;lon;timestamp;pressure;altitude;pressure_sealevel;temperature
15062;BMP180;7630;50.306;8.566;2023-12-22T00:00:09;96199.00;;;5.70
15062;BMP180;7630;50.306;8.566;2023-12-22T00:04:10;96217.00;;;5.30
15062;BMP180;7630;50.306;8.566;2023-12-22T00:08:12;96215.00;;;5.00
15062;BMP180;7630;50.306;8.566;2023-12-22T00:12:13;96218.00;;;4.90
15062;BMP180;7630;50.306;8.566;2023-12-22T00:16:14;96217.00;;;4.40
15062;BMP180;7630;50.306;8.566;2023-12-22T00:20:15;96260.00;;;4.70
15062;BMP180;7630;50.306;8.566;2023-12-22T00:24:17;96275.00;;;4.70
15062;BMP180;7630;50.306;8.566;2023-12-22T00:28:18;96233.00;;;5.00
15062;BMP180;7630;50.306;8.566;2023-12-22T00:32:19;96255.00;;;5.20
15062;BMP180;7630;50.306;8.566;2023-12-22T00:36:20;96237.00;;;5.20
15062;BMP180;7630;50.306;8.566;2023-12-22T00:40:23;96233.00;;;5.70
15062;BMP180;7630;50.306;8.566;2023-12-22T00:44:24;96211.00;;;4.90
15062;BMP180;7630;50.306;8.566;2023-12-22T00:48:27;96220.00;;;6.10
15062;BMP180;7630;50.306;8.566;2023-12-22T00:52:30;96259.00;;;5.80
15062;BMP180;7630;50.306;8.566;2023-12-22T00:56:31;96273.00;;;5.50
15062;BMP180;7630;50.306;8.566;2023-12-22T01:00:32;96290.00;;;5.60
15062;BMP180;7630;50.306;8.566;2023-12-22T01:04:33;96314.00;;;5.10
15062;BMP180;7630;50.306;8.566;2023-12-22T01:08:36;96338.00;;;4.70
15062;BMP180;7630;50.306;8.566;2023-12-22T01:12:38;96343.00;;;4.20
15062;BMP180;7630;50.306;8.566;2023-12-22T01:16:39;96352.00;;;4.50
15062;BMP180;7630;50.306;8.566;2023-12-22T01:20:41;96348.00;;;3.90
15062;BMP180;7630;50.306;8.566;2023-12-22T01:24:42;96362.00;;;4.60
15062;BMP180;7630;50.306;8.566;2023-12-22T01:28:44;96371.00;;;5.10
15062;BMP180;7630;50.306;8.566;2023-12-22T01:32:45;96359.00;;;4.50
15062;BMP180;7630;50.306;8.566;2023-12-22T01:36:47;96338.00;;;5.60
15062;BMP180;7630;50.306;8.566;2023-12-22T01:40:48;96341.00;;;4.40
15062;BMP180;7630;50.306;8.566;2023-12-22T01:44:49;96333.00;;;4.60
15062;BMP180;7630;50.306;8.566;2023-12-22T01:48:52;96309.00;;;4.20
15062;BMP180;7630;50.306;8.566;2023-12-22T01:52:53;96318.00;;;4.60
15062;BMP180;7630;50.306;8.566;2023-12-22T01:56:55;96343.00;;;4.20
15062;BMP180;7630;50.306;8.566;2023-12-22T02:00:56;96354.00;;;4.60
15062;BMP180;7630;50.306;8.566;2023-12-22T02:04:58;96356.00;;;4.40
15062;BMP180;7630;50.306;8.566;2023-12-22T02:09:01;96346.00;;;4.20
15062;BMP180;7630;50.306;8.566;2023-12-22T02:13:03;96340.00;;;4.90
15062;BMP180;7630;50.306;8.566;2023-12-22T02:17:14;96333.00;;;5.00
15062;BMP180;7630;50.306;8.566;2023-12-22T02:21:16;96319.00;;;4.40
15062;BMP180;7630;50.306;8.566;2023-12-22T02:25:18;96330.00;;;4.20
15062;BMP180;7630;50.306;8.566;2023-12-22T02:29:19;96313.00;;;4.20
15062;BMP180;7630;50.306;8.566;2023-12-22T02:33:22;96317.00;;;4.70
15062;BMP180;7630;50.306;8.566;2023-12-22T02:37:26;96341.00;;;3.90
15062;BMP180;7630;50.306;8.566;2023-12-22T02:41:28;96345.00;;;3.90
15062;BMP180;7630;50.306;8.566;2023-12-22T02:45:29;96333.00;;;4.00
15062;BMP180;7630;50.306;8.566;2023-12-22T02:49:33;96337.00;;;4.20
15062;BMP180;7630;50.306;8.566;2023-12-22T02:53:34;96339.00;;;4.90
15062;BMP180;7630;50.306;8.566;2023-12-22T02:57:35;96314.00;;;4.60
15062;BMP180;7630;50.306;8.566;2023-12-22T03:01:36;96325.00;;;4.20
15062;BMP180;7630;50.306;8.566;2023-12-22T03:05:37;96315.00;;;4.80
15062;BMP180;7630;50.306;8.566;2023-12-22T03:09:39;96327.00;;;4.10
15062;BMP180;7630;50.306;8.566;2023-12-22T03:13:40;96316.00;;;4.00
15062;BMP180;7630;50.306;8.566;2023-12-22T03:17:41;96311.00;;;4.50
15062;BMP180;7630;50.306;8.566;2023-12-22T03:21:43;96318.00;;;5.10
15062;BMP180;7630;50.306;8.566;2023-12-22T03:25:44;96309.00;;;4.80
15062;BMP180;7630;50.306;8.566;2023-12-22T03:29:45;96314.00;;;5.20
15062;BMP180;7630;50.306;8.566;2023-12-22T03:33:46;96326.00;;;5.10
15062;BMP180;7630;50.306;8.566;2023-12-22T03:37:47;96320.00;;;5.10
15062;BMP180;7630;50.306;8.566;2023-12-22T03:41:49;96322.00;;;4.90
15062;BMP180;7630;50.306;8.566;2023-12-22T03:45:50;96330.00;;;4.60
15062;BMP180;7630;50.306;8.566;2023-12-22T03:49:51;96328.00;;;4.70
15062;BMP180;7630;50.306;8.566;2023-12-22T03:53:52;96314.00;;;5.10
15062;BMP180;7630;50.306;8.566;2023-12-22T03:57:53;96305.00;;;5.20
15062;BMP180;7630;50.306;8.566;2023-12-22T04:01:55;96290.00;;;5.00
15062;BMP180;7630;50.306;8.566;2023-12-22T04:05:58;96307.00;;;4.10
15062;BMP180;7630;50.306;8.566;2023-12-22T04:10:01;96319.00;;;4.30
15062;BMP180;7630;50.306;8.566;2023-12-22T04:14:02;96332.00;;;4.60
15062;BMP180;7630;50.306;8.566;2023-12-22T04:18:04;96279.00;;;4.60
15062;BMP180;7630;50.306;8.566;2023-12-22T04:22:05;96350.00;;;4.60
15062;BMP180;7630;50.306;8.566;2023-12-22T04:26:06;96340.00;;;4.90
15062;BMP180;7630;50.306;8.566;2023-12-22T04:30:08;96327.00;;;4.70
15062;BMP180;7630;50.306;8.566;2023-12-22T04:34:13;96351.00;;;4.70
15062;BMP180;7630;50.306;8.566;2023-12-22T04:38:15;96356.00;;;5.20
15062;BMP180;7630;50.306;8.566;2023-12-22T04:42:16;96359.00;;;5.10
15062;BMP180;7630;50.306;8.566;2023-12-22T04:46:17;96369.00;;;6.10
15062;BMP180;7630;50.306;8.566;2023-12-22T04:50:18;96348.00;;;5.10
15062;BMP180;7630;50.306;8.566;2023-12-22T04:54:19;96345.00;;;5.70
15062;BMP180;7630;50.306;8.566;2023-12-22T04:58:21;96352.00;;;5.70
15062;BMP180;7630;50.306;8.566;2023-12-22T05:02:23;96369.00;;;5.70
15062;BMP180;7630;50.306;8.566;2023-12-22T05:06:24;96345.00;;;6.20
15062;BMP180;7630;50.306;8.566;2023-12-22T05:10:25;96368.00;;;6.20
15062;BMP180;7630;50.306;8.566;2023-12-22T05:14:26;96368.00;;;5.50
15062;BMP180;7630;50.306;8.566;2023-12-22T05:18:27;96389.00;;;6.70
15062;BMP180;7630;50.306;8.566;2023-12-22T05:22:29;96376.00;;;6.30
15062;BMP180;7630;50.306;8.566;2023-12-22T05:26:33;96360.00;;;5.50
15062;BMP180;7630;50.306;8.566;2023-12-22T05:30:35;96238.00;;;5.80
15062;BMP180;7630;50.306;8.566;2023-12-22T05:34:36;96349.00;;;4.90
15062;BMP180;7630;50.306;8.566;2023-12-22T05:38:38;96337.00;;;5.20
15062;BMP180;7630;50.306;8.566;2023-12-22T05:42:39;96330.00;;;5.50
15062;BMP180;7630;50.306;8.566;2023-12-22T05:46:40;96319.00;;;5.80
15062;BMP180;7630;50.306;8.566;2023-12-22T05:50:42;96345.00;;;5.40
15062;BMP180;7630;50.306;8.566;2023-12-22T05:54:43;96318.00;;;5.30
15062;BMP180;7630;50.306;8.566;2023-12-22T05:58:44;96332.00;;;6.50
15062;BMP180;7630;50.306;8.566;2023-12-22T06:02:45;96323.00;;;5.70
15062;BMP180;7630;50.306;8.566;2023-12-22T06:06:47;96344.00;;;6.00
15062;BMP180;7630;50.306;8.566;2023-12-22T06:10:48;96342.00;;;6.30
15062;BMP180;7630;50.306;8.566;2023-12-22T06:14:49;96351.00;;;6.10
15062;BMP180;7630;50.306;8.566;2023-12-22T06:18:50;96389.00;;;6.10
15062;BMP180;7630;50.306;8.566;2023-12-22T06:22:51;96388.00;;;6.20
15062;BMP180;7630;50.306;8.566;2023-12-22T06:26:55;96384.00;;;6.30
15062;BMP180;7630;50.306;8.566;2023-12-22T06:30:56;96407.00;;;6.20
15062;BMP180;7630;50.306;8.566;2023-12-22T06:34:57;96403.00;;;6.10
15062;BMP180;7630;50.306;8.566;2023-12-22T06:39:00;96407.00;;;6.50
15062;BMP180;7630;50.306;8.566;2023-12-22T06:43:01;96400.00;;;5.70
15062;BMP180;7630;50.306;8.566;2023-12-22T06:47:02;96390.00;;;6.00
15062;BMP180;7630;50.306;8.566;2023-12-22T06:51:06;96397.00;;;6.20
15062;BMP180;7630;50.306;8.566;2023-12-22T06:55:07;96395.00;;;6.10
15062;BMP180;7630;50.306;8.566;2023-12-22T06:59:09;96375.00;;;5.80
15062;BMP180;7630;50.306;8.566;2023-12-22T07:03:12;96374.00;;;6.40
15062;BMP180;7630;50.306;8.566;2023-12-22T07:07:13;96425.00;;;6.50
15062;BMP180;7630;50.306;8.566;2023-12-22T07:11:14;96431.00;;;5.90
15062;BMP180;7630;50.306;8.566;2023-12-22T07:15:17;96426.00;;;6.70
15062;BMP180;7630;50.306;8.566;2023-12-22T07:19:19;96432.00;;;6.40
15062;BMP180;7630;50.306;8.566;2023-12-22T07:23:20;96445.00;;;6.50
15062;BMP180;7630;50.306;8.566;2023-12-22T07:27:21;96453.00;;;7.40
15062;BMP180;7630;50.306;8.566;2023-12-22T07:31:22;96460.00;;;7.00
15062;BMP180;7630;50.306;8.566;2023-12-22T07:35:23;96458.00;;;7.40
15062;BMP180;7630;50.306;8.566;2023-12-22T07:39:24;96471.00;;;7.10
15062;BMP180;7630;50.306;8.566;2023-12-22T07:43:26;96498.00;;;6.70
15062;BMP180;7630;50.306;8.566;2023-12-22T07:47:27;96494.00;;;6.70
15062;BMP180;7630;50.306;8.566;2023-12-22T07:51:28;96498.00;;;7.80
15062;BMP180;7630;50.306;8.566;2023-12-22T07:55:29;96485.00;;;6.80
15062;BMP180;7630;50.306;8.566;2023-12-22T07:59:30;96478.00;;;7.30
15062;BMP180;7630;50.306;8.566;2023-12-22T08:03:33;96500.00;;;7.80
15062;BMP180;7630;50.306;8.566;2023-12-22T08:07:35;96505.00;;;8.00
15062;BMP180;7630;50.306;8.566;2023-12-22T08:11:36;96496.00;;;7.60
15062;BMP180;7630;50.306;8.566;2023-12-22T08:15:38;96517.00;;;7.50
15062;BMP180;7630;50.306;8.566;2023-12-22T08:19:39;96504.00;;;7.70
15062;BMP180;7630;50.306;8.566;2023-12-22T08:23:44;96511.00;;;7.00
15062;BMP180;7630;50.306;8.566;2023-12-22T08:27:47;96511.00;;;6.80
15062;BMP180;7630;50.306;8.566;2023-12-22T08:31:48;96523.00;;;6.90
15062;BMP180;7630;50.306;8.566;2023-12-22T08:35:50;96522.00;;;6.80
15062;BMP180;7630;50.306;8.566;2023-12-22T08:39:51;96520.00;;;7.00
15062;BMP180;7630;50.306;8.566;2023-12-22T08:43:53;96520.00;;;7.50
15062;BMP180;7630;50.306;8.566;2023-12-22T08:47:55;96541.00;;;6.80
15062;BMP180;7630;50.306;8.566;2023-12-22T08:51:57;96549.00;;;6.50
15062;BMP180;7630;50.306;8.566;2023-12-22T08:55:58;96532.00;;;6.80
15062;BMP180;7630;50.306;8.566;2023-12-22T08:59:59;96529.00;;;6.30
15062;BMP180;7630;50.306;8.566;2023-12-22T09:04:00;96519.00;;;7.00
15062;BMP180;7630;50.306;8.566;2023-12-22T09:08:02;96546.00;;;7.30
15062;BMP180;7630;50.306;8.566;2023-12-22T09:12:04;96531.00;;;7.60
15062;BMP180;7630;50.306;8.566;2023-12-22T09:16:05;96511.00;;;5.90
15062;BMP180;7630;50.306;8.566;2023-12-22T09:20:07;96534.00;;;6.30
15062;BMP180;7630;50.306;8.566;2023-12-22T09:24:08;96523.00;;;6.60
15062;BMP180;7630;50.306;8.566;2023-12-22T09:28:10;96524.00;;;6.60
15062;BMP180;7630;50.306;8.566;2023-12-22T09:32:11;96512.00;;;6.30
15062;BMP180;7630;50.306;8.566;2023-12-22T09:36:13;96508.00;;;6.00
15062;BMP180;7630;50.306;8.566;2023-12-22T09:40:14;96496.00;;;6.20
15062;BMP180;7630;50.306;8.566;2023-12-22T09:44:18;96513.00;;;6.30
15062;BMP180;7630;50.306;8.566;2023-12-22T09:48:21;96495.00;;;6.20
15062;BMP180;7630;50.306;8.566;2023-12-22T09:52:24;96492.00;;;6.20
15062;BMP180;7630;50.306;8.566;2023-12-22T09:56:27;96479.00;;;6.40
15062;BMP180;7630;50.306;8.566;2023-12-22T10:00:29;96497.00;;;6.30
15062;BMP180;7630;50.306;8.566;2023-12-22T10:04:32;96474.00;;;6.20
15062;BMP180;7630;50.306;8.566;2023-12-22T10:08:34;96489.00;;;6.20
15062;BMP180;7630;50.306;8.566;2023-12-22T10:12:36;96498.00;;;7.20
15062;BMP180;7630;50.306;8.566;2023-12-22T10:16:38;96493.00;;;7.70
15062;BMP180;7630;50.306;8.566;2023-12-22T10:20:40;96465.00;;;7.00
15062;BMP180;7630;50.306;8.566;2023-12-22T10:24:43;96470.00;;;7.30
15062;BMP180;7630;50.306;8.566;2023-12-22T10:28:47;96455.00;;;6.90
15062;BMP180;7630;50.306;8.566;2023-12-22T10:32:51;96448.00;;;7.20
15062;BMP180;7630;50.306;8.566;2023-12-22T10:36:55;96427.00;;;7.40
15062;BMP180;7630;50.306;8.566;2023-12-22T10:40:56;96448.00;;;7.20
15062;BMP180;7630;50.306;8.566;2023-12-22T10:44:58;96408.00;;;6.80
15062;BMP180;7630;50.306;8.566;2023-12-22T10:48:59;96409.00;;;7.80
15062;BMP180;7630;50.306;8.566;2023-12-22T10:53:01;96400.00;;;7.80
15062;BMP180;7630;50.306;8.566;2023-12-22T10:57:03;96388.00;;;7.30
15062;BMP180;7630;50.306;8.566;2023-12-22T11:01:06;96390.00;;;7.80
15062;BMP180;7630;50.306;8.566;2023-12-22T11:05:10;96389.00;;;7.50
15062;BMP180;7630;50.306;8.566;2023-12-22T11:09:15;96384.00;;;7.60
15062;BMP180;7630;50.306;8.566;2023-12-22T11:13:18;96385.00;;;7.30
15062;BMP180;7630;50.306;8.566;2023-12-22T11:17:21;96381.00;;;7.90
15062;BMP180;7630;50.306;8.566;2023-12-22T11:21:30;96365.00;;;7.40
15062;BMP180;7630;50.306;8.566;2023-12-22T11:25:32;96369.00;;;7.80
15062;BMP180;7630;50.306;8.566;2023-12-22T11:29:36;96358.00;;;7.70
15062;BMP180;7630;50.306;8.566;2023-12-22T11:33:43;96349.00;;;7.60
15062;BMP180;7630;50.306;8.566;2023-12-22T11:37:46;96342.00;;;7.20
15062;BMP180;7630;50.306;8.566;2023-12-22T11:41:49;96359.00;;;7.90
15062;BMP180;7630;50.306;8.566;2023-12-22T11:45:52;96333.00;;;7.80
15062;BMP180;7630;50.306;8.566;2023-12-22T11:49:53;96327.00;;;7.40
15062;BMP180;7630;50.306;8.566;2023-12-22T11:53:55;96319.00;;;7.40
15062;BMP180;7630;50.306;8.566;2023-12-22T11:57:56;96327.00;;;7.90
15062;BMP180;7630;50.306;8.566;2023-12-22T12:01:57;96321.00;;;7.20
15062;BMP180;7630;50.306;8.566;2023-12-22T12:14:40;96287.00;;;7.40
15062;BMP180;7630;50.306;8.566;2023-12-22T12:18:42;96295.00;;;7.70
15062;BMP180;7630;50.306;8.566;2023-12-22T12:22:43;96297.00;;;8.00
15062;BMP180;7630;50.306;8.566;2023-12-22T12:26:49;96309.00;;;8.20
15062;BMP180;7630;50.306;8.566;2023-12-22T12:30:59;96315.00;;;7.50
15062;BMP180;7630;50.306;8.566;2023-12-22T12:35:01;96305.00;;;7.40
15062;BMP180;7630;50.306;8.566;2023-12-22T12:39:12;96296.00;;;7.50
15062;BMP180;7630;50.306;8.566;2023-12-22T12:43:09;96304.00;;;8.40
15062;BMP180;7630;50.306;8.566;2023-12-22T12:47:17;96290.00;;;8.10
15062;BMP180;7630;50.306;8.566;2023-12-22T12:51:18;96288.00;;;7.80
15062;BMP180;7630;50.306;8.566;2023-12-22T12:55:20;96301.00;;;8.30
15062;BMP180;7630;50.306;8.566;2023-12-22T12:59:22;96296.00;;;8.30
15062;BMP180;7630;50.306;8.566;2023-12-22T13:03:23;96300.00;;;8.80
15062;BMP180;7630;50.306;8.566;2023-12-22T13:07:25;96319.00;;;8.60
15062;BMP180;7630;50.306;8.566;2023-12-22T13:11:29;96306.00;;;7.90
15062;BMP180;7630;50.306;8.566;2023-12-22T13:15:32;96301.00;;;8.00
15062;BMP180;7630;50.306;8.566;2023-12-22T13:19:33;96320.00;;;8.70
15062;BMP180;7630;50.306;8.566;2023-12-22T13:23:34;96296.00;;;8.70
15062;BMP180;7630;50.306;8.566;2023-12-22T13:27:47;96299.00;;;8.30
15062;BMP180;7630;50.306;8.566;2023-12-22T13:31:49;96302.00;;;8.20
15062;BMP180;7630;50.306;8.566;2023-12-22T13:35:50;96284.00;;;8.10
15062;BMP180;7630;50.306;8.566;2023-12-22T13:39:52;96296.00;;;8.80
15062;BMP180;7630;50.306;8.566;2023-12-22T13:43:53;96294.00;;;8.90
15062;BMP180;7630;50.306;8.566;2023-12-22T13:47:57;96293.00;;;8.70
15062;BMP180;7630;50.306;8.566;2023-12-22T13:51:58;96284.00;;;8.70
15062;BMP180;7630;50.306;8.566;2023-12-22T13:56:00;96289.00;;;9.50
15062;BMP180;7630;50.306;8.566;2023-12-22T14:00:23;96296.00;;;9.00
15062;BMP180;7630;50.306;8.566;2023-12-22T14:04:05;96299.00;;;8.60
15062;BMP180;7630;50.306;8.566;2023-12-22T14:08:09;96270.00;;;8.50
15062;BMP180;7630;50.306;8.566;2023-12-22T14:12:10;96304.00;;;8.80
15062;BMP180;7630;50.306;8.566;2023-12-22T14:16:13;96272.00;;;8.70
15062;BMP180;7630;50.306;8.566;2023-12-22T14:20:16;96278.00;;;9.10
15062;BMP180;7630;50.306;8.566;2023-12-22T14:24:18;96291.00;;;8.70
15062;BMP180;7630;50.306;8.566;2023-12-22T14:28:19;96290.00;;;8.20
15062;BMP180;7630;50.306;8.566;2023-12-22T14:32:21;96281.00;;;8.70
15062;BMP180;7630;50.306;8.566;2023-12-22T14:36:23;96306.00;;;8.40
15062;BMP180;7630;50.306;8.566;2023-12-22T14:40:24;96302.00;;;8.50
15062;BMP180;7630;50.306;8.566;2023-12-22T14:44:25;96304.00;;;8.20
15062;BMP180;7630;50.306;8.566;2023-12-22T14:48:27;96300.00;;;8.60
15062;BMP180;7630;50.306;8.566;2023-12-22T14:52:28;96316.00;;;8.60
15062;BMP180;7630;50.306;8.566;2023-12-22T14:56:29;96300.00;;;8.30
15062;BMP180;7630;50.306;8.566;2023-12-22T15:00:30;96302.00;;;8.10
15062;BMP180;7630;50.306;8.566;2023-12-22T15:04:32;96310.00;;;8.40
15062;BMP180;7630;50.306;8.566;2023-12-22T15:08:34;96313.00;;;8.40
15062;BMP180;7630;50.306;8.566;2023-12-22T15:12:37;96305.00;;;8.20
15062;BMP180;7630;50.306;8.566;2023-12-22T15:16:41;96319.00;;;8.30
15062;BMP180;7630;50.306;8.566;2023-12-22T15:20:44;96316.00;;;8.90
15062;BMP180;7630;50.306;8.566;2023-12-22T15:24:45;96320.00;;;8.60
15062;BMP180;7630;50.306;8.566;2023-12-22T15:28:46;96314.00;;;8.90
15062;BMP180;7630;50.306;8.566;2023-12-22T15:32:47;96327.00;;;9.00
15062;BMP180;7630;50.306;8.566;2023-12-22T15:36:50;96316.00;;;8.30
15062;BMP180;7630;50.306;8.566;2023-12-22T15:40:51;96361.00;;;8.80
15062;BMP180;7630;50.306;8.566;2023-12-22T15:44:52;96329.00;;;8.40
15062;BMP180;7630;50.306;8.566;2023-12-22T15:48:53;96354.00;;;8.80
15062;BMP180;7630;50.306;8.566;2023-12-22T15:52:55;96345.00;;;8.70
15062;BMP180;7630;50.306;8.566;2023-12-22T15:56:56;96337.00;;;8.10
15062;BMP180;7630;50.306;8.566;2023-12-22T16:00:57;96360.00;;;9.10
15062;BMP180;7630;50.306;8.566;2023-12-22T16:04:58;96348.00;;;8.20
15062;BMP180;7630;50.306;8.566;2023-12-22T16:08:59;96376.00;;;8.80
15062;BMP180;7630;50.306;8.566;2023-12-22T16:13:01;96358.00;;;8.80
15062;BMP180;7630;50.306;8.566;2023-12-22T16:17:02;96343.00;;;9.10
15062;BMP180;7630;50.306;8.566;2023-12-22T16:21:05;96348.00;;;8.80
15062;BMP180;7630;50.306;8.566;2023-12-22T16:25:06;96338.00;;;8.60
15062;BMP180;7630;50.306;8.566;2023-12-22T16:29:09;96361.00;;;9.00
15062;BMP180;7630;50.306;8.566;2023-12-22T16:33:10;96358.00;;;9.10
15062;BMP180;7630;50.306;8.566;2023-12-22T16:37:11;96368.00;;;9.40
15062;BMP180;7630;50.306;8.566;2023-12-22T16:41:12;96367.00;;;9.20
15062;BMP180;7630;50.306;8.566;2023-12-22T16:45:14;96393.00;;;9.00
15062;BMP180;7630;50.306;8.566;2023-12-22T16:49:15;96368.00;;;9.40
15062;BMP180;7630;50.306;8.566;2023-12-22T16:53:16;96400.00;;;8.40
15062;BMP180;7630;50.306;8.566;2023-12-22T16:57:17;96392.00;;;9.00
15062;BMP180;7630;50.306;8.566;2023-12-22T17:01:18;96389.00;;;8.70
15062;BMP180;7630;50.306;8.566;2023-12-22T17:05:21;96387.00;;;8.80
15062;BMP180;7630;50.306;8.566;2023-12-22T17:09:23;96383.00;;;9.00
15062;BMP180;7630;50.306;8.566;2023-12-22T17:13:25;96401.00;;;8.40
15062;BMP180;7630;50.306;8.566;2023-12-22T17:17:27;96400.00;;;8.50
15062;BMP180;7630;50.306;8.566;2023-12-22T17:21:28;96394.00;;;8.80
15062;BMP180;7630;50.306;8.566;2023-12-22T17:25:31;96367.00;;;9.10
15062;BMP180;7630;50.306;8.566;2023-12-22T17:29:34;96393.00;;;8.90
15062;BMP180;7630;50.306;8.566;2023-12-22T17:33:35;96379.00;;;8.60
15062;BMP180;7630;50.306;8.566;2023-12-22T17:37:38;96378.00;;;8.70
15062;BMP180;7630;50.306;8.566;2023-12-22T17:41:40;96381.00;;;8.60
15062;BMP180;7630;50.306;8.566;2023-12-22T17:45:41;96354.00;;;8.50
15062;BMP180;7630;50.306;8.566;2023-12-22T17:49:42;96374.00;;;8.70
15062;BMP180;7630;50.306;8.566;2023-12-22T17:53:43;96385.00;;;8.90
15062;BMP180;7630;50.306;8.566;2023-12-22T17:57:44;96392.00;;;8.80
15062;BMP180;7630;50.306;8.566;2023-12-22T18:01:46;96416.00;;;8.60
15062;BMP180;7630;50.306;8.566;2023-12-22T18:05:48;96422.00;;;8.70
15062;BMP180;7630;50.306;8.566;2023-12-22T18:09:50;96407.00;;;8.90
15062;BMP180;7630;50.306;8.566;2023-12-22T18:13:51;96413.00;;;8.70
15062;BMP180;7630;50.306;8.566;2023-12-22T18:17:53;96440.00;;;8.60
15062;BMP180;7630;50.306;8.566;2023-12-22T18:21:55;96442.00;;;9.10
15062;BMP180;7630;50.306;8.566;2023-12-22T18:25:56;96444.00;;;9.20
15062;BMP180;7630;50.306;8.566;2023-12-22T18:29:57;96462.00;;;9.30
15062;BMP180;7630;50.306;8.566;2023-12-22T18:33:59;96450.00;;;9.10
15062;BMP180;7630;50.306;8.566;2023-12-22T18:38:02;96449.00;;;9.20
15062;BMP180;7630;50.306;8.566;2023-12-22T18:42:04;96444.00;;;8.90
15062;BMP180;7630;50.306;8.566;2023-12-22T18:46:05;96457.00;;;9.00
15062;BMP180;7630;50.306;8.566;2023-12-22T18:50:07;96465.00;;;8.70
15062;BMP180;7630;50.306;8.566;2023-12-22T18:54:10;96462.00;;;9.20
15062;BMP180;7630;50.306;8.566;2023-12-22T18:58:11;96432.00;;;9.10
15062;BMP180;7630;50.306;8.566;2023-12-22T19:02:14;96441.00;;;9.20
15062;BMP180;7630;50.306;8.566;2023-12-22T19:06:17;96458.00;;;10.00
15062;BMP180;7630;50.306;8.566;2023-12-22T19:10:18;96467.00;;;9.10
15062;BMP180;7630;50.306;8.566;2023-12-22T19:14:20;96479.00;;;8.60
15062;BMP180;7630;50.306;8.566;2023-12-22T19:18:21;96474.00;;;8.60
15062;BMP180;7630;50.306;8.566;2023-12-22T19:22:23;96497.00;;;9.10
15062;BMP180;7630;50.306;8.566;2023-12-22T19:26:25;96507.00;;;9.10
15062;BMP180;7630;50.306;8.566;2023-12-22T19:30:26;96506.00;;;9.10
15062;BMP180;7630;50.306;8.566;2023-12-22T19:34:28;96508.00;;;9.10
15062;BMP180;7630;50.306;8.566;2023-12-22T19:38:30;96478.00;;;9.00
15062;BMP180;7630;50.306;8.566;2023-12-22T19:42:31;96460.00;;;8.60
15062;BMP180;7630;50.306;8.566;2023-12-22T19:46:33;96508.00;;;9.20
15062;BMP180;7630;50.306;8.566;2023-12-22T19:50:35;96528.00;;;9.10
15062;BMP180;7630;50.306;8.566;2023-12-22T19:54:36;96505.00;;;9.00
15062;BMP180;7630;50.306;8.566;2023-12-22T19:58:38;96539.00;;;9.30
15062;BMP180;7630;50.306;8.566;2023-12-22T20:02:39;96529.00;;;8.90
15062;BMP180;7630;50.306;8.566;2023-12-22T20:06:40;96528.00;;;9.40
15062;BMP180;7630;50.306;8.566;2023-12-22T20:10:43;96546.00;;;8.90
15062;BMP180;7630;50.306;8.566;2023-12-22T20:14:44;96539.00;;;8.90
15062;BMP180;7630;50.306;8.566;2023-12-22T20:18:46;96532.00;;;8.70
15062;BMP180;7630;50.306;8.566;2023-12-22T20:22:47;96539.00;;;9.40
15062;BMP180;7630;50.306;8.566;2023-12-22T20:26:48;96540.00;;;9.00
15062;BMP180;7630;50.306;8.566;2023-12-22T20:30:50;96544.00;;;9.40
15062;BMP180;7630;50.306;8.566;2023-12-22T20:34:51;96553.00;;;8.70
15062;BMP180;7630;50.306;8.566;2023-12-22T20:38:53;96533.00;;;9.00
15062;BMP180;7630;50.306;8.566;2023-12-22T20:42:54;96533.00;;;9.00
15062;BMP180;7630;50.306;8.566;2023-12-22T20:46:55;96537.00;;;9.00
15062;BMP180;7630;50.306;8.566;2023-12-22T20:50:56;96551.00;;;8.50
15062;BMP180;7630;50.306;8.566;2023-12-22T20:54:57;96515.00;;;8.30
15062;BMP180;7630;50.306;8.566;2023-12-22T20:58:58;96560.00;;;8.50
15062;BMP180;7630;50.306;8.566;2023-12-22T21:03:00;96562.00;;;8.20
15062;BMP180;7630;50.306;8.566;2023-12-22T21:07:01;96591.00;;;8.50
15062;BMP180;7630;50.306;8.566;2023-12-22T21:11:04;96592.00;;;8.40
15062;BMP180;7630;50.306;8.566;2023-12-22T21:15:06;96576.00;;;9.00
15062;BMP180;7630;50.306;8.566;2023-12-22T21:19:10;96593.00;;;8.90
15062;BMP180;7630;50.306;8.566;2023-12-22T21:23:12;96587.00;;;9.00
15062;BMP180;7630;50.306;8.566;2023-12-22T21:27:15;96607.00;;;9.10
15062;BMP180;7630;50.306;8.566;2023-12-22T21:31:16;96584.00;;;9.10
15062;BMP180;7630;50.306;8.566;2023-12-22T21:35:17;96589.00;;;9.30
15062;BMP180;7630;50.306;8.566;2023-12-22T21:39:18;96576.00;;;9.20
15062;BMP180;7630;50.306;8.566;2023-12-22T21:43:19;96599.00;;;8.70
15062;BMP180;7630;50.306;8.566;2023-12-22T21:47:20;96597.00;;;9.10
15062;BMP180;7630;50.306;8.566;2023-12-22T21:51:23;96599.00;;;9.50
15062;BMP180;7630;50.306;8.566;2023-12-22T21:55:27;96595.00;;;8.50
15062;BMP180;7630;50.306;8.566;2023-12-22T21:59:28;96625.00;;;8.80
15062;BMP180;7630;50.306;8.566;2023-12-22T22:03:29;96635.00;;;7.40
15062;BMP180;7630;50.306;8.566;2023-12-22T22:07:31;96657.00;;;7.00
15062;BMP180;7630;50.306;8.566;2023-12-22T22:11:32;96671.00;;;7.70
15062;BMP180;7630;50.306;8.566;2023-12-22T22:15:34;96683.00;;;8.10
15062;BMP180;7630;50.306;8.566;2023-12-22T22:19:35;96668.00;;;7.90
15062;BMP180;7630;50.306;8.566;2023-12-22T22:23:36;96683.00;;;8.20
15062;BMP180;7630;50.306;8.566;2023-12-22T22:27:37;96714.00;;;7.00
15062;BMP180;7630;50.306;8.566;2023-12-22T22:31:39;96701.00;;;7.50
15062;BMP180;7630;50.306;8.566;2023-12-22T22:35:41;96724.00;;;7.70
15062;BMP180;7630;50.306;8.566;2023-12-22T22:39:43;96708.00;;;7.60
15062;BMP180;7630;50.306;8.566;2023-12-22T22:43:44;96733.00;;;7.70
15062;BMP180;7630;50.306;8.566;2023-12-22T22:47:45;96731.00;;;7.70
15062;BMP180;7630;50.306;8.566;2023-12-22T22:51:47;96749.00;;;7.40
15062;BMP180;7630;50.306;8.566;2023-12-22T22:55:48;96779.00;;;7.00
15062;BMP180;7630;50.306;8.566;2023-12-22T22:59:49;96765.00;;;7.10
15062;BMP180;7630;50.306;8.566;2023-12-22T23:03:50;96768.00;;;7.20
15062;BMP180;7630;50.306;8.566;2023-12-22T23:07:53;96787.00;;;7.20
15062;BMP180;7630;50.306;8.566;2023-12-22T23:11:55;96804.00;;;7.90
15062;BMP180;7630;50.306;8.566;2023-12-22T23:15:56;96801.00;;;7.50
15062;BMP180;7630;50.306;8.566;2023-12-22T23:19:57;96805.00;;;7.40
15062;BMP180;7630;50.306;8.566;2023-12-22T23:23:58;96815.00;;;7.20
15062;BMP180;7630;50.306;8.566;2023-12-22T23:27:59;96819.00;;;6.80
15062;BMP180;7630;50.306;8.566;2023-12-22T23:32:00;96816.00;;;7.20
15062;BMP180;7630;50.306;8.566;2023-12-22T23:36:02;96860.00;;;7.20
15062;BMP180;7630;50.306;8.566;2023-12-22T23:40:07;96854.00;;;7.40
15062;BMP180;7630;50.306;8.566;2023-12-22T23:44:09;96877.00;;;7.30
15062;BMP180;7630;50.306;8.566;2023-12-22T23:48:10;96860.00;;;7.10
15062;BMP180;7630;50.306;8.566;2023-12-22T23:52:11;96879.00;;;7.10
15062;BMP180;7630;50.306;8.566;2023-12-22T23:56:12;96876.00;;;7.00
